Latest Weather Observations for North Head

IDN60801

Issued at 12:33 am EST Thursday 15 April 2021 (issued every 10 minutes, with the page automatically refreshed every 10 minutes)

About weather observations | Map of weather stations | Latest weather observations for NSW | Other Formats
Station Details ID: 066197 Name: NORTH HEAD Lat: -33.82 Lon: 151.30 Height: 90.0 m
Data from the previous 72 hours. | See also: Recent months at North Head
Date/Time
EST
Temp
°C
App
Temp
°C
Dew
Point
°C
Rel
Hum
%
Delta-T
°C
Wind Press
QNH
hPa
Press
MSL
hPa
Rain since
9am
mm
Dir  Spd
km/h
Gust
km/h
Spd
kts
Gust
kts
15/12:30am - - - - - SSW 9 13 5 7 - - -
15/12:00am - - - - - WNW 7 9 4 5 - - -
 
Date/Time
EST
Temp
°C
App
Temp
°C
Dew
Point
°C
Rel
Hum
%
Delta-T
°C
Wind Press
QNH
hPa
Press
MSL
hPa
Rain since
9am
mm
Dir  Spd
km/h
Gust
km/h
Spd
kts
Gust
kts
14/11:30pm - - - - - WNW 11 17 6 9 - - -
14/11:00pm - - - - - WNW 13 20 7 11 - - -
14/10:30pm - - - - - NW 9 17 5 9 - - -
14/10:00pm - - - - - NW 13 20 7 11 - - -
14/09:30pm - - - - - NW 13 17 7 9 - - -
14/09:00pm - - - - - WNW 13 20 7 11 - - -
14/08:30pm - - - - - WNW 15 20 8 11 - - -
14/08:00pm - - - - - NW 13 19 7 10 - - -
14/07:30pm - - - - - WNW 11 17 6 9 - - -
14/07:00pm - - - - - NW 13 19 7 10 - - -
14/06:30pm - - - - - NNW 9 13 5 7 - - -
14/06:00pm - - - - - N 9 13 5 7 - - -
14/05:30pm - - - - - N 9 13 5 7 - - -
14/05:00pm - - - - - N 11 17 6 9 - - -
14/04:30pm - - - - - N 11 15 6 8 - - -
14/04:00pm - - - - - NNE 11 17 6 9 - - -
14/03:30pm - - - - - NNE 6 9 3 5 - - -
14/03:00pm - - - - - NNE 7 13 4 7 - - -
14/02:30pm - - - - - NNE 9 15 5 8 - - -
14/02:00pm - - - - - NNW 11 20 6 11 - - -
14/01:30pm - - - - - NNW 11 19 6 10 - - -
14/01:00pm - - - - - NW 9 19 5 10 - - -
14/12:30pm - - - - - WNW 11 22 6 12 - - -
14/12:00pm - - - - - NW 11 20 6 11 - - -
14/11:30am - - - - - NW 11 19 6 10 - - -
14/11:00am - - - - - NW 15 26 8 14 - - -
14/10:30am - - - - - WNW 13 20 7 11 - - -
14/10:00am - - - - - NW 9 17 5 9 - - -
14/09:30am - - - - - NNW 11 17 6 9 - - -
14/09:00am - - - - - NNW 11 17 6 9 - - -
14/08:30am - - - - - NNW 11 19 6 10 - - -
14/08:00am - - - - - N 11 17 6 9 - - -
14/07:30am - - - - - N 11 17 6 9 - - -
14/07:00am - - - - - NNW 9 15 5 8 - - -
14/06:30am - - - - - NNW 15 22 8 12 - - -
14/06:00am - - - - - N 11 15 6 8 - - -
14/05:30am - - - - - NNW 13 19 7 10 - - -
14/05:00am - - - - - NNW 11 19 6 10 - - -
14/04:30am - - - - - N 11 15 6 8 - - -
14/04:00am - - - - - N 11 17 6 9 - - -
14/03:30am - - - - - N 13 17 7 9 - - -
14/03:00am - - - - - N 13 17 7 9 - - -
14/02:30am - - - - - N 13 19 7 10 - - -
14/02:00am - - - - - N 11 15 6 8 - - -
14/01:30am - - - - - N 11 15 6 8 - - -
14/01:00am - - - - - N 11 19 6 10 - - -
14/12:30am - - - - - N 15 20 8 11 - - -
14/12:00am - - - - - N 15 20 8 11 - - -
 
Date/Time
EST
Temp
°C
App
Temp
°C
Dew
Point
°C
Rel
Hum
%
Delta-T
°C
Wind Press
QNH
hPa
Press
MSL
hPa
Rain since
9am
mm
Dir  Spd
km/h
Gust
km/h
Spd
kts
Gust
kts
13/11:30pm - - - - - N 15 20 8 11 - - -
13/11:00pm - - - - - N 17 26 9 14 - - -
13/10:30pm - - - - - N 20 32 11 17 - - -
13/10:00pm - - - - - N 19 32 10 17 - - -
13/09:30pm - - - - - N 17 24 9 13 - - -
13/09:00pm - - - - - N 19 30 10 16 - - -
13/08:30pm - - - - - NNE 20 28 11 15 - - -
13/08:00pm - - - - - NNE 19 33 10 18 - - -
13/07:30pm - - - - - NNE 19 30 10 16 - - -
13/07:00pm - - - - - NNE 20 32 11 17 - - -
13/06:30pm - - - - - NNE 20 32 11 17 - - -
13/06:00pm - - - - - NNE 17 28 9 15 - - -
13/05:30pm - - - - - NNE 17 24 9 13 - - -
13/05:00pm - - - - - NNE 17 24 9 13 - - -
13/04:30pm - - - - - NE 17 24 9 13 - - -
13/04:00pm - - - - - NE 17 24 9 13 - - -
13/03:30pm - - - - - NE 19 26 10 14 - - -
13/03:00pm - - - - - NE 15 24 8 13 - - -
13/02:30pm - - - - - ENE 17 24 9 13 - - -
13/02:00pm - - - - - ENE 15 20 8 11 - - -
13/01:30pm - - - - - ENE 13 19 7 10 - - -
13/01:00pm - - - - - ENE 11 17 6 9 - - -
13/12:30pm - - - - - E 9 13 5 7 - - -
13/12:00pm - - - - - ESE 9 13 5 7 - - -
13/11:30am - - - - - SSW 6 11 3 6 - - -
13/11:00am - - - - - SW 7 11 4 6 - - -
13/10:30am - - - - - SSW 7 9 4 5 - - -
13/10:00am - - - - - W 9 13 5 7 - - -
13/09:30am - - - - - WNW 11 15 6 8 - - -
13/09:00am - - - - - W 11 17 6 9 - - -
13/08:30am - - - - - WNW 11 17 6 9 - - -
13/08:00am - - - - - WNW 13 17 7 9 - - -
13/07:30am - - - - - WNW 15 19 8 10 - - -
13/07:00am - - - - - WNW 15 19 8 10 - - -
13/06:30am - - - - - WNW 15 19 8 10 - - -
13/06:00am - - - - - WNW 13 17 7 9 - - -
13/05:30am - - - - - WNW 13 19 7 10 - - -
13/05:00am - - - - - WNW 13 17 7 9 - - -
13/04:30am - - - - - W 15 20 8 11 - - -
13/04:00am - - - - - WNW 13 17 7 9 - - -
13/03:30am - - - - - WNW 13 17 7 9 - - -
13/03:00am - - - - - WNW 13 17 7 9 - - -
13/02:30am - - - - - WNW 15 19 8 10 - - -
13/02:00am - - - - - WNW 15 20 8 11 - - -
13/01:30am - - - - - WNW 13 19 7 10 - - -
13/01:00am - - - - - WNW 15 19 8 10 - - -
13/12:30am - - - - - WNW 15 20 8 11 - - -
13/12:00am - - - - - WNW 15 19 8 10 - - -
 
Date/Time
EST
Temp
°C
App
Temp
°C
Dew
Point
°C
Rel
Hum
%
Delta-T
°C
Wind Press
QNH
hPa
Press
MSL
hPa
Rain since
9am
mm
Dir  Spd
km/h
Gust
km/h
Spd
kts
Gust
kts
12/11:30pm - - - - - WNW 13 17 7 9 - - -
12/11:00pm - - - - - WNW 13 17 7 9 - - -
12/10:30pm - - - - - W 13 17 7 9 - - -
12/10:00pm - - - - - WNW 9 11 5 6 - - -
12/09:30pm - - - - - WNW 9 11 5 6 - - -
12/09:00pm - - - - - WNW 7 9 4 5 - - -
12/08:30pm - - - - - WNW 7 11 4 6 - - -
12/08:00pm - - - - - S 7 11 4 6 - - -
12/07:30pm - - - - - S 7 13 4 7 - - -
12/07:00pm - - - - - S 9 13 5 7 - - -
12/06:30pm - - - - - SSE 9 17 5 9 - - -
12/06:00pm - - - - - SSE 11 17 6 9 - - -
12/05:30pm - - - - - SSE 11 17 6 9 - - -
12/05:00pm - - - - - SSE 9 19 5 10 - - -
12/04:30pm - - - - - SSE 11 19 6 10 - - -
12/04:00pm - - - - - S 17 26 9 14 - - -
12/03:30pm - - - - - SSE 19 28 10 15 - - -
12/03:00pm - - - - - S 15 20 8 11 - - -
12/02:30pm - - - - - S 17 24 9 13 - - -
12/02:00pm - - - - - SSE 20 32 11 17 - - -
12/01:30pm - - - - - S 20 30 11 16 - - -
12/01:00pm - - - - - S 19 33 10 18 - - -
12/12:30pm - - - - - SSW 13 24 7 13 - - -
12/12:00pm - - - - - SW 17 26 9 14 - - -
12/11:30am - - - - - SW 15 22 8 12 - - -
12/11:00am - - - - - SW 19 26 10 14 - - -
12/10:30am - - - - - WSW 17 28 9 15 - - -
12/10:00am - - - - - WSW 20 32 11 17 - - -
12/09:30am - - - - - WSW 19 30 10 16 - - -
12/09:00am - - - - - WSW 19 30 10 16 - - -
12/08:30am - - - - - WSW 22 35 12 19 - - -
12/08:00am - - - - - WSW 22 33 12 18 - - -
12/07:30am - - - - - WSW 20 32 11 17 - - -
12/07:00am - - - - - WSW 19 28 10 15 - - -
12/06:30am - - - - - WSW 20 30 11 16 - - -
12/06:00am - - - - - WSW 19 30 10 16 - - -
12/05:30am - - - - - WSW 19 28 10 15 - - -
12/05:00am - - - - - WSW 17 30 9 16 - - -
12/04:30am - - - - - WSW 19 30 10 16 - - -
12/04:00am - - - - - W 17 22 9 12 - - -
12/03:30am - - - - - W 19 28 10 15 - - -
12/03:00am - - - - - W 17 24 9 13 - - -
12/02:30am - - - - - W 17 28 9 15 - - -
12/02:00am - - - - - W 17 24 9 13 - - -
12/01:30am - - - - - W 19 28 10 15 - - -
12/01:00am - - - - - W 20 30 11 16 - - -

Other formats

Comma delimited format used in spreadsheet applications
http://www.bom.gov.au/fwo/IDN60801/IDN60801.95768.axf

JavaScript Object Notation format (JSON) in row-major order
http://www.bom.gov.au/fwo/IDN60801/IDN60801.95768.json

Data quality

Most of these data are generated automatically and are frequently updated. Quality checks on data are not normally performed. It is possible for incorrect values to appear. Refer to information at About Latest Weather Observations and please check the disclaimer before using these data.